createdAt,value
2017-02-08T00:00:07.370Z,22.77
2017-02-08T00:00:35.635Z,22.8
2017-02-08T00:01:04.004Z,22.81
2017-02-08T00:01:32.356Z,22.77
2017-02-08T00:02:00.504Z,22.78
2017-02-08T00:02:28.855Z,22.77
2017-02-08T00:02:57.107Z,22.81
2017-02-08T00:03:25.467Z,22.74
2017-02-08T00:03:53.742Z,22.8
2017-02-08T00:04:21.887Z,22.7
2017-02-08T00:05:33.259Z,22.78
2017-02-08T00:06:01.389Z,22.73
2017-02-08T00:06:29.668Z,22.83
2017-02-08T00:06:57.995Z,22.77
2017-02-08T00:07:26.386Z,22.77
2017-02-08T00:07:54.681Z,22.81
2017-02-08T00:08:22.841Z,22.85
2017-02-08T00:08:51.000Z,22.74
2017-02-08T00:09:19.183Z,22.77
2017-02-08T00:09:47.463Z,22.76
2017-02-08T00:10:15.882Z,22.8
2017-02-08T00:11:27.333Z,22.78
2017-02-08T00:11:55.557Z,22.74
2017-02-08T00:12:23.825Z,22.73
2017-02-08T00:12:52.201Z,22.81
2017-02-08T00:13:20.547Z,22.83
2017-02-08T00:13:48.892Z,22.83
2017-02-08T00:14:17.235Z,22.83
2017-02-08T00:14:45.404Z,22.78
2017-02-08T00:15:13.714Z,22.81
2017-02-08T00:15:41.954Z,22.83
2017-02-08T00:16:10.151Z,22.76
2017-02-08T00:17:21.575Z,22.71
2017-02-08T00:17:49.923Z,22.83
2017-02-08T00:18:18.249Z,22.86
2017-02-08T00:18:46.706Z,22.76
2017-02-08T00:19:15.105Z,22.77
2017-02-08T00:19:43.259Z,22.8
2017-02-08T00:20:11.419Z,22.8
2017-02-08T00:20:39.677Z,22.76
2017-02-08T00:21:08.038Z,22.83
2017-02-08T00:21:36.230Z,22.92
2017-02-08T00:22:04.567Z,22.8
2017-02-08T00:23:16.027Z,22.74
2017-02-08T00:23:44.244Z,22.77
2017-02-08T00:24:12.331Z,22.88
2017-02-08T00:24:40.554Z,22.77
2017-02-08T00:25:08.750Z,22.91
2017-02-08T00:25:37.137Z,22.81
2017-02-08T00:26:05.343Z,22.77
2017-02-08T00:26:33.641Z,22.77
2017-02-08T00:27:01.860Z,22.8
2017-02-08T00:27:30.183Z,22.8
2017-02-08T00:27:58.557Z,22.77
2017-02-08T00:29:09.981Z,22.77
2017-02-08T00:29:38.248Z,22.7
2017-02-08T00:30:06.560Z,22.7
2017-02-08T00:30:34.967Z,22.81
2017-02-08T00:31:03.261Z,22.77
2017-02-08T00:31:31.551Z,22.88
2017-02-08T00:31:59.754Z,22.78
2017-02-08T00:32:28.145Z,22.78
2017-02-08T00:32:56.570Z,22.88
2017-02-08T00:33:24.982Z,22.85
2017-02-08T00:33:53.442Z,22.78
2017-02-08T00:35:04.871Z,22.8
2017-02-08T00:35:32.951Z,22.76
2017-02-08T00:36:01.262Z,22.78
2017-02-08T00:36:29.579Z,22.78
2017-02-08T00:36:57.687Z,22.8
2017-02-08T00:37:25.790Z,22.77
2017-02-08T00:37:53.993Z,22.7
2017-02-08T00:38:22.297Z,22.64
2017-02-08T00:38:50.522Z,22.66
2017-02-08T00:39:18.759Z,22.71
2017-02-08T00:39:47.038Z,22.66
2017-02-08T00:40:58.278Z,22.77
2017-02-08T00:41:26.545Z,22.77
2017-02-08T00:41:54.951Z,22.74
2017-02-08T00:42:23.175Z,22.76
2017-02-08T00:42:51.467Z,22.68
2017-02-08T00:43:19.666Z,22.67
2017-02-08T00:43:47.965Z,22.73
2017-02-08T00:44:16.115Z,22.74
2017-02-08T00:44:44.881Z,22.7
2017-02-08T00:45:13.116Z,22.71
2017-02-08T00:45:41.485Z,22.8
2017-02-08T00:46:52.912Z,22.76
2017-02-08T00:47:20.997Z,22.78
2017-02-08T00:47:49.027Z,22.77
2017-02-08T00:48:17.355Z,22.68
2017-02-08T00:48:45.552Z,22.81
2017-02-08T00:49:13.657Z,22.73
2017-02-08T00:49:41.677Z,22.67
2017-02-08T00:50:09.981Z,22.61
2017-02-08T00:50:38.303Z,22.73
2017-02-08T00:51:06.626Z,22.71
2017-02-08T00:51:35.010Z,22.7
2017-02-08T00:52:46.532Z,22.67
2017-02-08T00:53:14.796Z,22.67
2017-02-08T00:53:42.924Z,22.7
2017-02-08T00:54:11.156Z,22.7
2017-02-08T00:54:39.458Z,22.67
2017-02-08T00:55:07.654Z,22.68
2017-02-08T00:55:36.042Z,22.71
2017-02-08T00:56:04.254Z,22.71
2017-02-08T00:56:32.575Z,22.67
2017-02-08T00:57:00.719Z,22.7
2017-02-08T00:57:29.180Z,22.62
2017-02-08T00:58:40.515Z,22.73
2017-02-08T00:59:08.783Z,22.67
2017-02-08T00:59:37.189Z,22.67
2017-02-08T01:00:05.510Z,22.68
2017-02-08T01:00:33.892Z,22.68
2017-02-08T01:01:02.188Z,22.73
2017-02-08T01:01:30.487Z,22.73
2017-02-08T01:01:58.879Z,22.74
2017-02-08T01:02:27.018Z,22.73
2017-02-08T01:02:55.060Z,22.71
2017-02-08T01:03:23.360Z,22.71
2017-02-08T01:04:34.693Z,22.66
2017-02-08T01:05:02.867Z,22.71
2017-02-08T01:05:31.182Z,22.67
2017-02-08T01:05:59.504Z,22.66
2017-02-08T01:06:27.711Z,22.68
2017-02-08T01:06:56.093Z,22.64
2017-02-08T01:07:24.386Z,22.64
2017-02-08T01:07:52.597Z,22.59
2017-02-08T01:08:20.917Z,22.58
2017-02-08T01:08:49.251Z,22.61
2017-02-08T01:09:17.622Z,22.61
2017-02-08T01:10:29.053Z,22.59
2017-02-08T01:10:57.227Z,22.59
2017-02-08T01:11:25.449Z,22.61
2017-02-08T01:11:53.705Z,22.61
2017-02-08T01:12:22.092Z,22.59
2017-02-08T01:12:50.198Z,22.58
2017-02-08T01:13:18.589Z,22.56
2017-02-08T01:13:46.892Z,22.55
2017-02-08T01:14:15.211Z,22.56
2017-02-08T01:14:43.536Z,22.56
2017-02-08T01:15:12.013Z,22.56
2017-02-08T01:16:23.533Z,22.55
2017-02-08T01:16:51.894Z,22.52
2017-02-08T01:17:20.206Z,22.59
2017-02-08T01:17:48.474Z,22.51
2017-02-08T01:18:16.766Z,22.49
2017-02-08T01:18:44.963Z,22.49
2017-02-08T01:19:13.259Z,22.49
2017-02-08T01:19:41.654Z,22.48
2017-02-08T01:20:10.075Z,22.53
2017-02-08T01:20:38.316Z,22.46
2017-02-08T01:21:06.631Z,22.52
2017-02-08T01:22:18.072Z,22.49
2017-02-08T01:22:46.284Z,22.49
2017-02-08T01:23:14.684Z,22.43
2017-02-08T01:23:43.133Z,22.49
2017-02-08T01:24:11.597Z,22.44
2017-02-08T01:24:39.955Z,22.38
2017-02-08T01:25:08.172Z,22.51
2017-02-08T01:25:36.462Z,22.49
2017-02-08T01:26:04.900Z,22.48
2017-02-08T01:26:33.125Z,22.51
2017-02-08T01:27:01.624Z,22.46
2017-02-08T01:28:13.158Z,22.53
2017-02-08T01:28:41.551Z,22.48
2017-02-08T01:29:10.010Z,22.46
2017-02-08T01:29:38.540Z,22.49
2017-02-08T01:30:06.828Z,22.51
2017-02-08T01:30:35.163Z,22.49
2017-02-08T01:31:03.381Z,22.44
2017-02-08T01:31:31.685Z,22.44
2017-02-08T01:31:59.915Z,22.53
2017-02-08T01:32:28.328Z,22.46
2017-02-08T01:32:56.697Z,22.52
2017-02-08T01:34:08.035Z,22.44
2017-02-08T01:34:36.212Z,22.49
2017-02-08T01:35:04.528Z,22.49
2017-02-08T01:35:32.951Z,22.51
2017-02-08T01:36:01.245Z,22.48
2017-02-08T01:36:29.448Z,22.48
2017-02-08T01:36:57.842Z,22.46
2017-02-08T01:37:26.047Z,22.52
2017-02-08T01:37:54.371Z,22.48
2017-02-08T01:38:22.698Z,22.49
2017-02-08T01:38:50.976Z,22.48
2017-02-08T01:40:02.492Z,22.49
2017-02-08T01:40:30.483Z,22.48
2017-02-08T01:40:58.882Z,22.4
2017-02-08T01:41:27.134Z,22.41
2017-02-08T01:41:55.429Z,22.46
2017-02-08T01:42:23.720Z,22.48
2017-02-08T01:42:51.836Z,22.49
2017-02-08T01:43:19.946Z,22.41
2017-02-08T01:43:48.251Z,22.44
2017-02-08T01:44:16.482Z,22.46
2017-02-08T01:44:44.681Z,22.49
2017-02-08T01:45:56.121Z,22.49
2017-02-08T01:46:24.206Z,22.52
2017-02-08T01:46:52.336Z,22.46
2017-02-08T01:47:20.691Z,22.49
2017-02-08T01:47:48.979Z,22.46
2017-02-08T01:48:17.360Z,22.44
2017-02-08T01:48:45.565Z,22.52
2017-02-08T01:49:13.868Z,22.49
2017-02-08T01:49:42.201Z,22.49
2017-02-08T01:50:10.433Z,22.49
2017-02-08T01:50:38.738Z,22.44
2017-02-08T01:51:50.163Z,22.41
2017-02-08T01:52:18.427Z,22.4
2017-02-08T01:52:46.741Z,22.46
2017-02-08T01:53:15.174Z,22.52
2017-02-08T01:53:43.564Z,22.46
2017-02-08T01:54:11.758Z,22.43
2017-02-08T01:54:39.961Z,22.49
2017-02-08T01:55:08.264Z,22.49
2017-02-08T01:55:36.603Z,22.53
2017-02-08T01:56:04.841Z,22.48
2017-02-08T01:56:33.122Z,22.44
2017-02-08T01:57:44.643Z,22.49
2017-02-08T01:58:12.755Z,22.48
2017-02-08T01:58:40.887Z,22.44
2017-02-08T01:59:09.310Z,22.51
2017-02-08T01:59:37.516Z,22.49
2017-02-08T02:00:05.713Z,22.52
2017-02-08T02:00:33.922Z,22.52
2017-02-08T02:01:02.130Z,22.48
2017-02-08T02:01:30.369Z,22.41
2017-02-08T02:01:58.611Z,22.41
2017-02-08T02:02:27.006Z,22.34
2017-02-08T02:03:38.246Z,22.38
2017-02-08T02:04:06.513Z,22.34
2017-02-08T02:04:34.773Z,22.36
2017-02-08T02:05:03.117Z,22.41
2017-02-08T02:05:31.405Z,22.33
2017-02-08T02:05:59.696Z,22.34
2017-02-08T02:06:27.902Z,22.3
2017-02-08T02:06:56.110Z,22.37
2017-02-08T02:07:24.242Z,22.3
2017-02-08T02:07:52.476Z,22.3
2017-02-08T02:08:20.677Z,22.33
2017-02-08T02:09:32.009Z,22.28
2017-02-08T02:10:00.180Z,22.33
2017-02-08T02:10:28.488Z,22.31
2017-02-08T02:10:56.640Z,22.23
2017-02-08T02:11:24.843Z,22.22
2017-02-08T02:11:53.132Z,22.31
2017-02-08T02:12:21.338Z,22.28
2017-02-08T02:12:49.641Z,22.3
2017-02-08T02:13:17.794Z,22.31
2017-02-08T02:13:45.944Z,22.21
2017-02-08T02:14:14.247Z,22.33
2017-02-08T02:15:25.673Z,22.31
2017-02-08T02:15:53.947Z,22.31
2017-02-08T02:16:22.259Z,22.33
2017-02-08T02:16:50.492Z,22.33
2017-02-08T02:17:18.689Z,22.28
2017-02-08T02:17:47.072Z,22.27
2017-02-08T02:18:15.280Z,22.33
2017-02-08T02:18:43.580Z,22.31
2017-02-08T02:19:11.982Z,22.34
2017-02-08T02:19:40.217Z,22.33
2017-02-08T02:20:08.424Z,22.31
2017-02-08T02:21:19.755Z,22.31
2017-02-08T02:21:47.934Z,22.3
2017-02-08T02:22:16.160Z,22.37
2017-02-08T02:22:44.404Z,22.33
2017-02-08T02:23:12.796Z,22.27
2017-02-08T02:23:40.897Z,22.18
2017-02-08T02:24:09.290Z,22.3
2017-02-08T02:24:37.595Z,22.19
2017-02-08T02:25:05.931Z,22.19
2017-02-08T02:25:34.161Z,22.23
2017-02-08T02:26:02.272Z,22.19
2017-02-08T02:27:13.604Z,22.23
2017-02-08T02:27:41.685Z,22.3
2017-02-08T02:28:09.904Z,22.19
2017-02-08T02:28:38.346Z,22.18
2017-02-08T02:29:06.637Z,22.23
2017-02-08T02:29:34.842Z,22.21
2017-02-08T02:30:03.143Z,22.19
2017-02-08T02:30:31.354Z,22.18
2017-02-08T02:30:59.495Z,22.25
2017-02-08T02:31:27.824Z,22.21
2017-02-08T02:31:56.219Z,22.21
2017-02-08T02:33:07.454Z,22.19
2017-02-08T02:33:35.720Z,22.15
2017-02-08T02:34:04.038Z,22.21
2017-02-08T02:34:32.276Z,22.18
2017-02-08T02:35:00.570Z,22.22
2017-02-08T02:35:28.767Z,22.23
2017-02-08T02:35:56.973Z,22.23
2017-02-08T02:36:25.275Z,22.16
2017-02-08T02:36:53.608Z,22.23
2017-02-08T02:37:21.845Z,22.21
2017-02-08T02:37:50.243Z,22.18
2017-02-08T02:39:01.674Z,22.21
2017-02-08T02:39:29.941Z,22.22
2017-02-08T02:39:58.256Z,22.22
2017-02-08T02:40:26.508Z,22.22
2017-02-08T02:40:54.810Z,22.25
2017-02-08T02:41:22.826Z,22.16
2017-02-08T02:41:50.937Z,22.21
2017-02-08T02:42:19.238Z,22.21
2017-02-08T02:42:47.572Z,22.33
2017-02-08T02:43:15.899Z,22.18
2017-02-08T02:43:44.206Z,22.18
2017-02-08T02:44:55.726Z,22.19
2017-02-08T02:45:24.090Z,22.25
2017-02-08T02:45:52.399Z,22.19
2017-02-08T02:46:20.743Z,22.19
2017-02-08T02:46:49.135Z,22.16
2017-02-08T02:47:17.430Z,22.18
2017-02-08T02:47:45.818Z,22.19
2017-02-08T02:48:14.128Z,22.18
2017-02-08T02:48:42.533Z,22.19
2017-02-08T02:49:10.766Z,22.16
2017-02-08T02:49:39.262Z,22.21
2017-02-08T02:50:50.689Z,22.19
2017-02-08T02:51:19.056Z,22.12
2017-02-08T02:51:47.282Z,22.19
2017-02-08T02:52:15.716Z,22.03
2017-02-08T02:52:44.110Z,22.19
2017-02-08T02:53:12.497Z,22.16
2017-02-08T02:53:40.893Z,22.13
2017-02-08T02:54:09.097Z,22.18
2017-02-08T02:54:37.342Z,22.22
2017-02-08T02:55:05.673Z,22.18
2017-02-08T02:55:34.051Z,22.16
2017-02-08T02:56:45.480Z,22.22
2017-02-08T02:57:13.570Z,22.13
2017-02-08T02:57:41.888Z,22.15
2017-02-08T02:58:10.210Z,22.12
2017-02-08T02:58:38.600Z,22.18
2017-02-08T02:59:06.892Z,22.09
2017-02-08T02:59:35.005Z,22.19
2017-02-08T03:00:03.220Z,22.16
2017-02-08T03:00:31.550Z,22.19
2017-02-08T03:00:59.879Z,22.04
2017-02-08T03:01:28.373Z,22.11
2017-02-08T03:02:39.898Z,22.07
2017-02-08T03:03:08.076Z,22.16
2017-02-08T03:03:36.298Z,22.09
2017-02-08T03:04:04.619Z,22.07
2017-02-08T03:04:33.000Z,22.15
2017-02-08T03:05:01.294Z,22.18
2017-02-08T03:05:29.499Z,22.15
2017-02-08T03:05:57.897Z,22.19
2017-02-08T03:06:26.212Z,22.15
2017-02-08T03:07:05.464Z,22.16
2017-02-08T03:07:33.841Z,22.03
2017-02-08T03:08:45.271Z,22.18
2017-02-08T03:09:13.632Z,22.19
2017-02-08T03:09:41.943Z,22.19
2017-02-08T03:10:10.277Z,22.16
2017-02-08T03:10:38.675Z,22.13
2017-02-08T03:11:06.873Z,22.19
2017-02-08T03:11:35.167Z,22.22
2017-02-08T03:12:03.375Z,22.18
2017-02-08T03:12:31.617Z,22.19
2017-02-08T03:12:59.942Z,22.27
2017-02-08T03:13:28.330Z,22.15
2017-02-08T03:14:39.761Z,22.22
2017-02-08T03:15:08.125Z,22.16
2017-02-08T03:15:36.533Z,22.23
2017-02-08T03:16:04.871Z,22.18
2017-02-08T03:16:33.260Z,22.16
2017-02-08T03:17:01.550Z,22.16
2017-02-08T03:17:29.852Z,22.15
2017-02-08T03:17:58.159Z,22.15
2017-02-08T03:18:26.474Z,22.15
2017-02-08T03:18:54.892Z,22.21
2017-02-08T03:19:23.262Z,22.19
2017-02-08T03:20:34.782Z,22.16
2017-02-08T03:21:03.058Z,22.13
2017-02-08T03:21:31.371Z,22.16
2017-02-08T03:21:59.724Z,22.19
2017-02-08T03:22:28.022Z,22.13
2017-02-08T03:22:56.410Z,22.16
2017-02-08T03:23:24.428Z,22.19
2017-02-08T03:23:52.725Z,22.19
2017-02-08T03:24:20.966Z,22.21
2017-02-08T03:24:49.195Z,22.15
2017-02-08T03:25:17.382Z,22.22
2017-02-08T03:26:28.717Z,22.19
2017-02-08T03:26:56.988Z,22.16
2017-02-08T03:27:25.400Z,22.15
2017-02-08T03:27:53.842Z,22.18
2017-02-08T03:28:22.233Z,22.18
2017-02-08T03:28:50.440Z,22.21
2017-02-08T03:29:18.740Z,22.16
2017-02-08T03:29:47.041Z,22.15
2017-02-08T03:30:15.182Z,22.21
2017-02-08T03:30:43.594Z,22.16
2017-02-08T03:31:12.063Z,22.16
2017-02-08T03:32:23.491Z,22.15
2017-02-08T03:32:51.672Z,22.21
2017-02-08T03:33:20.078Z,22.19
2017-02-08T03:33:48.214Z,22.19
2017-02-08T03:34:16.606Z,22.11
2017-02-08T03:34:44.991Z,22.15
2017-02-08T03:35:13.296Z,22.06
2017-02-08T03:35:41.689Z,22.13
2017-02-08T03:36:10.100Z,22.12
2017-02-08T03:36:38.338Z,22.07
2017-02-08T03:37:06.713Z,22.12
2017-02-08T03:38:18.239Z,22.04
2017-02-08T03:38:46.506Z,22.06
2017-02-08T03:39:14.913Z,22.03
2017-02-08T03:39:43.141Z,22.06
2017-02-08T03:40:11.531Z,22.13
2017-02-08T03:40:39.822Z,22.06
2017-02-08T03:41:08.028Z,22.01
2017-02-08T03:41:36.234Z,22.03
2017-02-08T03:42:04.549Z,22
2017-02-08T03:42:32.782Z,22.06
2017-02-08T03:43:01.061Z,22.03
2017-02-08T03:44:12.395Z,22.06
2017-02-08T03:44:40.759Z,22.07
2017-02-08T03:45:09.070Z,21.96
2017-02-08T03:45:37.300Z,22
2017-02-08T03:46:05.689Z,22.04
2017-02-08T03:46:33.984Z,22.06
2017-02-08T03:47:02.009Z,22.01
2017-02-08T03:47:30.412Z,22.04
2017-02-08T03:47:58.627Z,22.01
2017-02-08T03:48:26.956Z,22
2017-02-08T03:48:55.235Z,22.01
2017-02-08T03:50:06.572Z,22.06
2017-02-08T03:50:34.839Z,21.98
2017-02-08T03:51:03.152Z,22.01
2017-02-08T03:51:31.566Z,22.03
2017-02-08T03:51:59.859Z,22.03
2017-02-08T03:52:28.056Z,22.01
2017-02-08T03:52:56.072Z,22.06
2017-02-08T03:53:24.376Z,22.07
2017-02-08T03:53:52.782Z,22.07
2017-02-08T03:54:21.107Z,22.07
2017-02-08T03:54:49.472Z,22.04
2017-02-08T03:56:00.903Z,22.03
2017-02-08T03:56:29.174Z,22.06
2017-02-08T03:56:57.581Z,22.03
2017-02-08T03:57:25.900Z,22.03
2017-02-08T03:57:54.198Z,22.06
2017-02-08T03:58:22.585Z,21.98
2017-02-08T03:58:50.974Z,22
2017-02-08T03:59:19.092Z,22.03
2017-02-08T03:59:47.500Z,22.01
2017-02-08T04:00:15.729Z,22.07
2017-02-08T04:00:44.218Z,22.06
2017-02-08T04:01:55.529Z,21.97
2017-02-08T04:02:23.702Z,21.97
2017-02-08T04:02:52.016Z,21.98
2017-02-08T04:03:20.429Z,21.96
2017-02-08T04:03:48.818Z,21.96
2017-02-08T04:04:17.202Z,21.96
2017-02-08T04:04:45.407Z,22
2017-02-08T04:05:13.714Z,21.98
2017-02-08T04:05:41.936Z,21.94
2017-02-08T04:06:10.354Z,22
2017-02-08T04:06:38.724Z,21.97
2017-02-08T04:07:50.155Z,22.04
2017-02-08T04:08:18.520Z,22.01
2017-02-08T04:08:46.831Z,22.01
2017-02-08T04:09:15.250Z,22
2017-02-08T04:09:43.644Z,22
2017-02-08T04:10:11.938Z,22
2017-02-08T04:10:40.143Z,21.98
2017-02-08T04:11:08.534Z,21.96
2017-02-08T04:11:36.940Z,22.01
2017-02-08T04:12:05.086Z,21.98
2017-02-08T04:12:33.461Z,22
2017-02-08T04:13:44.890Z,21.98
2017-02-08T04:14:13.157Z,21.93
2017-02-08T04:14:41.565Z,21.98
2017-02-08T04:15:09.980Z,21.94
2017-02-08T04:15:38.286Z,22.06
2017-02-08T04:16:06.582Z,22.01
2017-02-08T04:16:34.877Z,21.94
2017-02-08T04:17:03.081Z,22
2017-02-08T04:17:31.396Z,21.97
2017-02-08T04:17:59.721Z,22
2017-02-08T04:18:28.092Z,21.97
2017-02-08T04:19:39.429Z,21.98
2017-02-08T04:20:07.694Z,21.97
2017-02-08T04:20:36.096Z,21.93
2017-02-08T04:21:04.416Z,21.94
2017-02-08T04:21:32.806Z,21.93
2017-02-08T04:22:01.195Z,21.93
2017-02-08T04:22:29.589Z,21.85
2017-02-08T04:22:57.979Z,21.93
2017-02-08T04:23:26.194Z,21.9
2017-02-08T04:23:54.521Z,21.88
2017-02-08T04:24:22.899Z,21.9
2017-02-08T04:25:34.228Z,21.91
2017-02-08T04:26:02.403Z,21.9
2017-02-08T04:26:30.628Z,21.88
2017-02-08T04:26:59.039Z,21.84
2017-02-08T04:27:27.430Z,21.84
2017-02-08T04:27:55.815Z,21.85
2017-02-08T04:28:24.207Z,21.85
2017-02-08T04:28:52.506Z,21.85
2017-02-08T04:29:20.733Z,21.97
2017-02-08T04:29:49.060Z,21.91
2017-02-08T04:30:17.429Z,21.91
2017-02-08T04:31:28.859Z,21.9
2017-02-08T04:31:57.220Z,21.88
2017-02-08T04:32:25.624Z,21.85
2017-02-08T04:32:54.042Z,21.78
2017-02-08T04:33:22.338Z,21.98
2017-02-08T04:33:50.724Z,21.91
2017-02-08T04:34:19.120Z,21.85
2017-02-08T04:34:47.431Z,21.84
2017-02-08T04:35:15.835Z,21.88
2017-02-08T04:35:44.254Z,21.91
2017-02-08T04:36:12.542Z,21.82
2017-02-08T04:37:23.869Z,21.78
2017-02-08T04:37:52.141Z,21.73
2017-02-08T04:38:20.545Z,21.74
2017-02-08T04:38:48.865Z,21.77
2017-02-08T04:39:17.163Z,21.81
2017-02-08T04:39:45.459Z,21.77
2017-02-08T04:40:13.663Z,21.78
2017-02-08T04:40:41.969Z,21.75
2017-02-08T04:41:10.280Z,21.84
2017-02-08T04:41:38.607Z,21.8
2017-02-08T04:42:06.979Z,21.77
2017-02-08T04:43:18.500Z,21.81
2017-02-08T04:43:46.863Z,21.73
2017-02-08T04:44:15.082Z,21.84
2017-02-08T04:44:43.489Z,21.88
2017-02-08T04:45:11.783Z,21.78
2017-02-08T04:45:40.165Z,21.8
2017-02-08T04:46:08.561Z,21.8
2017-02-08T04:46:36.856Z,21.84
2017-02-08T04:47:05.159Z,21.91
2017-02-08T04:47:33.302Z,21.77
2017-02-08T04:48:01.581Z,21.88
2017-02-08T04:49:13.104Z,21.84
2017-02-08T04:49:41.375Z,21.85
2017-02-08T04:50:09.597Z,21.9
2017-02-08T04:50:37.914Z,21.91
2017-02-08T04:51:06.310Z,21.84
2017-02-08T04:51:34.701Z,21.85
2017-02-08T04:52:03.001Z,21.85
2017-02-08T04:52:31.396Z,21.81
2017-02-08T04:52:59.620Z,21.91
2017-02-08T04:53:27.945Z,21.85
2017-02-08T04:53:56.319Z,21.9
2017-02-08T04:55:07.648Z,21.85
2017-02-08T04:55:35.919Z,21.96
2017-02-08T04:56:04.231Z,21.91
2017-02-08T04:56:32.641Z,21.91
2017-02-08T04:57:01.032Z,21.85
2017-02-08T04:57:29.420Z,21.93
2017-02-08T04:57:57.537Z,21.84
2017-02-08T04:58:25.840Z,21.9
2017-02-08T04:58:54.155Z,21.94
2017-02-08T04:59:22.387Z,21.84
2017-02-08T04:59:50.759Z,21.88
2017-02-08T05:01:02.286Z,21.96
2017-02-08T05:01:30.649Z,21.9
2017-02-08T05:01:59.056Z,21.91
2017-02-08T05:02:27.473Z,21.88
2017-02-08T05:02:55.866Z,21.85
2017-02-08T05:03:23.880Z,21.84
2017-02-08T05:03:52.272Z,21.85
2017-02-08T05:04:20.664Z,21.9
2017-02-08T05:04:48.877Z,21.94
2017-02-08T05:05:17.113Z,21.85
2017-02-08T05:05:45.483Z,21.85
2017-02-08T05:06:57.010Z,21.82
2017-02-08T05:07:25.190Z,21.82
2017-02-08T05:07:53.503Z,21.78
2017-02-08T05:08:21.910Z,21.81
2017-02-08T05:08:50.205Z,21.78
2017-02-08T05:09:18.496Z,21.8
2017-02-08T05:09:46.704Z,21.77
2017-02-08T05:10:14.913Z,21.82
2017-02-08T05:10:43.317Z,21.77
2017-02-08T05:11:11.553Z,21.78
2017-02-08T05:11:39.923Z,21.84
2017-02-08T05:12:51.442Z,21.81
2017-02-08T05:13:19.709Z,21.91
2017-02-08T05:13:48.113Z,21.88
2017-02-08T05:14:16.430Z,21.88
2017-02-08T05:14:44.727Z,21.91
2017-02-08T05:15:13.118Z,21.93
2017-02-08T05:15:41.146Z,21.9
2017-02-08T05:16:09.549Z,21.93
2017-02-08T05:16:37.951Z,21.75
2017-02-08T05:17:06.371Z,21.8
2017-02-08T05:17:34.744Z,21.78
2017-02-08T05:18:46.264Z,21.81
2017-02-08T05:19:14.628Z,21.8
2017-02-08T05:19:42.943Z,21.75
2017-02-08T05:20:11.360Z,21.75
2017-02-08T05:20:39.752Z,21.74
2017-02-08T05:21:08.046Z,21.71
2017-02-08T05:21:36.252Z,21.75
2017-02-08T05:22:04.647Z,21.74
2017-02-08T05:22:32.958Z,21.75
2017-02-08T05:23:01.380Z,21.75
2017-02-08T05:23:29.750Z,21.78
2017-02-08T05:24:41.175Z,21.75
2017-02-08T05:25:09.439Z,21.75
2017-02-08T05:25:37.846Z,21.67
2017-02-08T05:26:06.164Z,21.75
2017-02-08T05:26:34.464Z,21.73
2017-02-08T05:27:02.849Z,21.71
2017-02-08T05:27:31.242Z,21.67
2017-02-08T05:27:59.639Z,21.66
2017-02-08T05:28:28.039Z,21.73
2017-02-08T05:28:56.363Z,21.74
2017-02-08T05:29:24.736Z,21.66
2017-02-08T05:30:36.259Z,21.73
2017-02-08T05:31:04.621Z,21.74
2017-02-08T05:31:33.029Z,21.63
2017-02-08T05:32:01.353Z,21.63
2017-02-08T05:32:29.653Z,21.65
2017-02-08T05:32:58.039Z,21.67
2017-02-08T05:33:26.331Z,21.65
2017-02-08T05:33:54.727Z,21.71
2017-02-08T05:34:23.128Z,21.63
2017-02-08T05:34:51.269Z,21.65
2017-02-08T05:35:19.636Z,21.69
2017-02-08T05:36:30.969Z,21.74
2017-02-08T05:36:59.236Z,21.71
2017-02-08T05:37:27.645Z,21.73
2017-02-08T05:37:56.062Z,21.66
2017-02-08T05:38:24.264Z,21.67
2017-02-08T05:38:52.648Z,21.75
2017-02-08T05:39:21.040Z,21.78
2017-02-08T05:39:49.343Z,21.77
2017-02-08T05:40:17.746Z,21.75
2017-02-08T05:40:45.981Z,21.73
2017-02-08T05:41:14.355Z,21.75
2017-02-08T05:42:25.875Z,21.75
2017-02-08T05:42:54.048Z,21.74
2017-02-08T05:43:22.457Z,21.75
2017-02-08T05:43:50.866Z,21.73
2017-02-08T05:44:19.071Z,21.77
2017-02-08T05:44:47.483Z,21.73
2017-02-08T05:45:15.766Z,21.74
2017-02-08T05:45:44.167Z,21.73
2017-02-08T05:46:12.569Z,21.77
2017-02-08T05:46:40.994Z,21.75
2017-02-08T05:47:09.456Z,21.73
2017-02-08T05:48:20.979Z,21.75
2017-02-08T05:48:49.249Z,21.71
2017-02-08T05:49:17.565Z,21.74
2017-02-08T05:49:45.977Z,21.67
2017-02-08T05:50:14.371Z,21.74
2017-02-08T05:50:42.759Z,21.71
2017-02-08T05:51:10.962Z,21.67
2017-02-08T05:51:39.357Z,21.75
2017-02-08T05:52:07.662Z,21.73
2017-02-08T05:52:35.985Z,21.74
2017-02-08T05:53:04.263Z,21.71
2017-02-08T05:54:15.693Z,21.75
2017-02-08T05:54:44.058Z,21.66
2017-02-08T05:55:12.463Z,21.65
2017-02-08T05:55:40.873Z,21.63
2017-02-08T05:56:09.177Z,21.69
2017-02-08T05:56:37.562Z,21.66
2017-02-08T05:57:05.859Z,21.77
2017-02-08T05:57:34.164Z,21.71
2017-02-08T05:58:02.379Z,21.69
2017-02-08T05:58:30.613Z,21.67
2017-02-08T05:58:58.981Z,21.73
2017-02-08T06:00:10.501Z,21.74
2017-02-08T06:00:38.873Z,21.75
2017-02-08T06:01:07.181Z,21.62
2017-02-08T06:01:35.594Z,21.67
2017-02-08T06:02:03.896Z,21.66
2017-02-08T06:02:32.097Z,21.69
2017-02-08T06:03:00.397Z,21.66
2017-02-08T06:03:28.609Z,21.69
2017-02-08T06:03:56.926Z,21.6
2017-02-08T06:04:25.346Z,21.69
2017-02-08T06:04:53.718Z,21.74
2017-02-08T06:06:05.141Z,21.58
2017-02-08T06:06:33.412Z,21.69
2017-02-08T06:07:01.819Z,21.67
2017-02-08T06:07:30.234Z,21.69
2017-02-08T06:07:58.627Z,21.67
2017-02-08T06:08:26.922Z,21.69
2017-02-08T06:08:55.123Z,21.6
2017-02-08T06:09:23.424Z,21.63
2017-02-08T06:09:51.557Z,21.67
2017-02-08T06:10:19.979Z,21.65
2017-02-08T06:10:48.349Z,21.69
2017-02-08T06:11:59.777Z,21.66
2017-02-08T06:12:28.047Z,21.65
2017-02-08T06:12:56.270Z,21.66
2017-02-08T06:13:24.682Z,21.63
2017-02-08T06:13:52.978Z,21.63
2017-02-08T06:14:21.270Z,21.59
2017-02-08T06:14:49.664Z,21.69
2017-02-08T06:15:17.972Z,21.69
2017-02-08T06:15:46.289Z,21.62
2017-02-08T06:16:14.522Z,21.6
2017-02-08T06:16:42.886Z,21.65
2017-02-08T06:17:54.405Z,21.67
2017-02-08T06:18:22.673Z,21.6
2017-02-08T06:18:51.086Z,21.67
2017-02-08T06:19:19.499Z,21.75
2017-02-08T06:19:47.892Z,21.65
2017-02-08T06:20:16.277Z,21.66
2017-02-08T06:20:44.483Z,21.62
2017-02-08T06:21:12.695Z,21.71
2017-02-08T06:21:40.912Z,21.62
2017-02-08T06:22:09.333Z,21.62
2017-02-08T06:22:37.618Z,21.63
2017-02-08T06:23:48.956Z,21.58
2017-02-08T06:24:17.223Z,21.63
2017-02-08T06:24:45.542Z,21.63
2017-02-08T06:25:13.955Z,21.71
2017-02-08T06:25:42.341Z,21.69
2017-02-08T06:26:10.730Z,21.5
2017-02-08T06:26:38.840Z,21.71
2017-02-08T06:27:06.958Z,21.63
2017-02-08T06:27:35.358Z,21.67
2017-02-08T06:28:03.783Z,21.67
2017-02-08T06:28:32.242Z,21.69
2017-02-08T06:29:43.576Z,21.58
2017-02-08T06:30:11.853Z,21.58
2017-02-08T06:30:41.012Z,21.56
2017-02-08T06:31:09.329Z,21.63
2017-02-08T06:31:37.718Z,21.58
2017-02-08T06:32:06.103Z,21.63
2017-02-08T06:32:34.495Z,21.66
2017-02-08T06:33:02.703Z,21.65
2017-02-08T06:33:31.021Z,21.62
2017-02-08T06:33:59.345Z,21.75
2017-02-08T06:34:27.713Z,21.69
2017-02-08T06:35:39.144Z,21.73
2017-02-08T06:36:07.416Z,21.63
2017-02-08T06:36:35.728Z,21.69
2017-02-08T06:37:04.142Z,21.71
2017-02-08T06:37:32.440Z,21.75
2017-02-08T06:38:00.734Z,21.71
2017-02-08T06:38:29.040Z,21.77
2017-02-08T06:38:57.433Z,21.58
2017-02-08T06:39:25.562Z,21.65
2017-02-08T06:39:53.891Z,21.59
2017-02-08T06:40:22.356Z,21.78
2017-02-08T06:41:33.785Z,21.71
2017-02-08T06:42:01.962Z,21.65
2017-02-08T06:42:30.274Z,21.6
2017-02-08T06:42:58.592Z,21.58
2017-02-08T06:43:26.978Z,21.75
2017-02-08T06:43:55.360Z,21.6
2017-02-08T06:44:23.567Z,21.65
2017-02-08T06:44:51.966Z,21.65
2017-02-08T06:45:20.277Z,21.62
2017-02-08T06:45:48.512Z,21.62
2017-02-08T06:46:16.982Z,21.62
2017-02-08T06:47:28.321Z,21.77
2017-02-08T06:47:56.495Z,21.62
2017-02-08T06:48:24.808Z,21.78
2017-02-08T06:48:53.126Z,21.6
2017-02-08T06:49:21.512Z,21.62
2017-02-08T06:49:49.804Z,21.66
2017-02-08T06:50:18.197Z,21.78
2017-02-08T06:50:46.503Z,21.63
2017-02-08T06:51:14.818Z,21.55
2017-02-08T06:51:43.148Z,21.63
2017-02-08T06:52:11.519Z,21.73
2017-02-08T06:53:23.043Z,21.65
2017-02-08T06:53:51.312Z,21.71
2017-02-08T06:54:19.627Z,21.65
2017-02-08T06:54:47.945Z,21.71
2017-02-08T06:55:16.336Z,21.69
2017-02-08T06:55:44.725Z,21.62
2017-02-08T06:56:13.115Z,21.71